Time;durP1;ratioP1;P1;durP2;ratioP2;P2;SDS_P1;SDS_P2;PMS_P1;PMS_P2;Temp;Humidity;BMP_temperature;BMP_pressure;BME280_temperature;BME280_humidity;BME280_pressure;Samples;Min_cycle;Max_cycle;Signal;HPM_P1;HPM_P2
2023/01/21 00:01:17;;;;;;;9.32;5.63;;;0.30;99.90;;;;;;4931314;29;20511;-75
2023/01/21 00:03:44;;;;;;;9.65;5.47;;;0.20;99.90;;;;;;4936379;29;20518;-75
2023/01/21 00:06:10;;;;;;;;;;;0.20;99.90;;;;;;4950911;29;20466;-75
2023/01/21 00:08:36;;;;;;;9.18;5.97;;;0.10;99.90;;;;;;4950335;29;20432;-75
2023/01/21 00:11:10;;;;;;;11.48;6.45;;;0.10;99.90;;;;;;4916125;29;20051;-75
2023/01/21 00:13:36;;;;;;;10.15;5.78;;;0.10;99.90;;;;;;4948830;29;20047;-74
2023/01/21 00:16:03;;;;;;;10.60;5.95;;;0.00;99.90;;;;;;4932126;29;20380;-74
2023/01/21 00:18:29;;;;;;;9.32;5.88;;;0.00;99.90;;;;;;4931808;29;20424;-75
2023/01/21 00:20:55;;;;;;;9.65;5.65;;;0.00;99.90;;;;;;4948112;28;20110;-74
2023/01/21 00:23:21;;;;;;;9.25;5.40;;;-0.10;99.90;;;;;;4950457;28;20114;-74
2023/01/21 00:25:46;;;;;;;8.73;5.37;;;-0.10;99.90;;;;;;4932518;28;20055;-74
2023/01/21 00:28:12;;;;;;;8.53;4.73;;;-0.20;99.90;;;;;;4954472;28;20297;-74
2023/01/21 00:30:38;;;;;;;10.23;5.65;;;-0.20;99.90;;;;;;4946129;29;20309;-74
2023/01/21 00:33:04;;;;;;;9.30;5.57;;;-0.20;99.90;;;;;;4950598;29;20043;-74
2023/01/21 00:35:29;;;;;;;9.73;5.95;;;-0.30;99.90;;;;;;4938388;29;20067;-74
2023/01/21 00:37:55;;;;;;;7.47;4.80;;;-0.20;99.90;;;;;;4939440;29;20075;-74
2023/01/21 00:40:21;;;;;;;8.15;4.72;;;-0.30;99.90;;;;;;4949381;29;20131;-74
2023/01/21 00:42:47;;;;;;;7.70;4.47;;;-0.30;99.90;;;;;;4937936;29;20047;-74
2023/01/21 00:45:13;;;;;;;8.25;4.60;;;-0.30;99.90;;;;;;4924346;29;20055;-74
2023/01/21 00:47:39;;;;;;;11.00;6.07;;;-0.40;99.90;;;;;;4935181;29;20058;-74
2023/01/21 00:50:05;;;;;;;9.80;4.90;;;-0.40;99.90;;;;;;4928471;29;20063;-74
2023/01/21 00:52:31;;;;;;;10.05;5.82;;;-0.40;99.90;;;;;;4900176;29;20526;-74
2023/01/21 00:54:56;;;;;;;11.32;6.30;;;-0.40;99.90;;;;;;4926064;29;20070;-74
2023/01/21 00:57:22;;;;;;;7.93;4.60;;;-0.40;99.90;;;;;;4935166;29;20475;-74
2023/01/21 00:59:48;;;;;;;8.38;4.60;;;-0.30;99.90;;;;;;4931925;29;20799;-74
2023/01/21 01:02:13;;;;;;;8.27;4.78;;;-0.40;99.90;;;;;;4900010;29;20047;-74
2023/01/21 01:04:39;;;;;;;8.43;4.82;;;-0.40;99.90;;;;;;4923074;29;20058;-74
2023/01/21 01:07:05;;;;;;;10.02;5.70;;;-0.40;99.90;;;;;;4915423;29;20048;-74
2023/01/21 01:09:31;;;;;;;9.77;5.30;;;-0.50;99.90;;;;;;4904628;29;20059;-74
2023/01/21 01:11:56;;;;;;;11.02;5.70;;;-0.50;99.90;;;;;;4931221;29;20479;-74
2023/01/21 01:14:23;;;;;;;11.40;6.18;;;-0.50;99.90;;;;;;4912135;29;20044;-74
2023/01/21 01:16:49;;;;;;;11.88;6.85;;;-0.50;99.90;;;;;;4928198;29;20510;-74
2023/01/21 01:19:15;;;;;;;7.95;4.43;;;-0.50;99.90;;;;;;4918328;29;20391;-75
2023/01/21 01:21:41;;;;;;;10.02;5.57;;;-0.50;99.90;;;;;;4929908;29;20143;-74
2023/01/21 01:24:07;;;;;;;9.68;5.20;;;-0.50;99.90;;;;;;4915360;29;20063;-74
2023/01/21 01:26:34;;;;;;;9.07;5.13;;;-0.60;99.90;;;;;;4918490;29;20047;-74
2023/01/21 01:29:01;;;;;;;8.23;4.68;;;-0.60;99.90;;;;;;4918330;29;20047;-74
2023/01/21 01:31:27;;;;;;;8.02;4.50;;;-0.70;99.90;;;;;;4915230;29;20047;-74
2023/01/21 01:33:52;;;;;;;7.57;4.53;;;-0.70;99.90;;;;;;4931042;29;20043;-74
2023/01/21 01:36:22;;;;;;;7.07;3.90;;;-0.70;99.90;;;;;;4943973;29;20482;-74
2023/01/21 01:38:48;;;;;;;8.15;4.47;;;-0.70;99.90;;;;;;4943349;28;20043;-74
2023/01/21 01:41:17;;;;;;;7.78;4.35;;;-0.80;99.90;;;;;;4926620;29;20047;-74
2023/01/21 01:43:58;;;;;;;7.13;4.18;;;-0.80;99.90;;;;;;4941549;29;20055;-74
2023/01/21 01:46:27;;;;;;;7.18;4.15;;;-0.80;99.90;;;;;;4946992;29;20046;-75
2023/01/21 01:49:18;;;;;;;9.23;4.65;;;-0.70;99.90;;;;;;4937944;29;20391;-74
2023/01/21 01:51:46;;;;;;;10.52;5.72;;;-0.70;99.90;;;;;;4958813;28;20086;-74
2023/01/21 01:54:16;;;;;;;10.63;5.85;;;-0.70;99.90;;;;;;4968888;28;20173;-74
2023/01/21 01:56:47;;;;;;;10.00;5.50;;;-0.60;99.90;;;;;;4951828;29;20058;-74
2023/01/21 01:59:13;;;;;;;9.45;5.07;;;-0.70;99.90;;;;;;4940387;29;20044;-74
2023/01/21 02:01:38;;;;;;;8.32;4.43;;;-0.60;99.90;;;;;;4939083;29;20048;-74
2023/01/21 02:04:09;;;;;;;8.48;4.60;;;-0.60;99.90;;;;;;4934804;29;20557;-74
2023/01/21 02:06:36;;;;;;;7.70;4.50;;;-0.70;99.90;;;;;;4935915;29;20047;-74
2023/01/21 02:09:02;;;;;;;6.32;3.92;;;-0.70;99.90;;;;;;4953297;29;20062;-74
2023/01/21 02:11:28;;;;;;;6.55;3.72;;;-0.80;99.90;;;;;;4938641;29;20094;-74
2023/01/21 02:13:57;;;;;;;7.88;4.25;;;-0.70;99.90;;;;;;4935732;29;20501;-74
2023/01/21 02:16:51;;;;;;;11.80;6.55;;;-0.70;99.90;;;;;;4924712;29;20122;-74
2023/01/21 02:19:45;;;;;;;13.50;7.40;;;-0.50;99.90;;;;;;4936410;29;20159;-74
2023/01/21 02:22:34;;;;;;;13.60;7.95;;;-0.60;99.90;;;;;;4949723;29;20145;-74
2023/01/21 02:25:27;;;;;;;11.95;6.75;;;-0.60;99.90;;;;;;4951837;28;20062;-74
2023/01/21 02:28:20;;;;;;;13.75;7.50;;;-0.50;99.90;;;;;;4951581;28;20042;-74
2023/01/21 02:31:12;;;;;;;14.45;8.02;;;-0.60;99.90;;;;;;4952894;28;20047;-74
2023/01/21 02:33:52;;;;;;;15.75;8.18;;;-0.50;99.90;;;;;;4933648;29;20054;-74
2023/01/21 02:36:31;;;;;;;13.68;7.65;;;-0.40;99.90;;;;;;4937583;29;20039;-74
2023/01/21 02:39:22;;;;;;;12.15;6.40;;;-0.50;99.90;;;;;;4939557;29;20043;-74
2023/01/21 02:42:10;;;;;;;14.07;7.43;;;-0.40;99.90;;;;;;4938529;29;20091;-74
2023/01/21 02:44:43;;;;;;;12.15;6.70;;;-0.40;99.90;;;;;;4932020;29;20055;-74
2023/01/21 02:47:18;;;;;;;14.65;7.50;;;-0.50;99.90;;;;;;4947690;29;20055;-74
2023/01/21 02:49:51;;;;;;;16.13;8.65;;;-0.30;99.90;;;;;;4949880;29;20070;-74
2023/01/21 02:52:19;;;;;;;13.55;7.63;;;-0.40;99.90;;;;;;4948052;29;20082;-74
2023/01/21 02:54:56;;;;;;;16.70;9.05;;;-0.40;99.90;;;;;;4951589;29;20051;-74
2023/01/21 02:57:32;;;;;;;;;;;-0.40;99.90;;;;;;4921513;29;20047;-74
2023/01/21 03:00:01;;;;;;;14.27;7.88;;;-0.50;99.90;;;;;;4934833;29;19926;-75
2023/01/21 03:02:35;;;;;;;13.68;7.43;;;-0.50;99.90;;;;;;4942358;29;20046;-74
2023/01/21 03:05:22;;;;;;;11.68;6.57;;;-0.50;99.90;;;;;;4917728;29;20051;-74
2023/01/21 03:08:01;;;;;;;9.93;5.75;;;-0.60;99.90;;;;;;4949575;29;20047;-74
2023/01/21 03:10:41;;;;;;;8.48;4.78;;;-0.50;99.90;;;;;;4949795;29;20510;-74
2023/01/21 03:16:55;;;;;;;10.38;5.28;;;-0.40;99.90;;;;;;4951948;29;20134;-74
2023/01/21 03:18:56;;;;;;;;;;;-0.50;99.90;;;;;;4952505;29;20058;-74
2023/01/21 03:21:26;;;;;;;16.08;8.38;;;-0.40;99.90;;;;;;4940469;29;19976;-74
2023/01/21 03:23:54;;;;;;;15.48;8.43;;;-0.30;99.90;;;;;;4951855;28;20487;-74
2023/01/21 03:26:31;;;;;;;12.98;7.15;;;-0.40;99.90;;;;;;4950214;29;20063;-74
2023/01/21 03:29:03;;;;;;;17.52;8.95;;;-0.20;99.90;;;;;;4948960;29;20055;-74
2023/01/21 03:31:32;;;;;;;17.95;9.68;;;-0.20;99.90;;;;;;4941957;28;20051;-74
2023/01/21 03:34:02;;;;;;;18.90;9.30;;;-0.30;99.90;;;;;;4967470;28;20446;-74
2023/01/21 03:36:45;;;;;;;16.35;8.52;;;-0.10;99.90;;;;;;4947428;28;20050;-74
2023/01/21 03:39:43;;;;;;;15.63;7.70;;;-0.20;99.90;;;;;;4939029;29;20394;-75
2023/01/21 03:42:10;;;;;;;9.95;5.95;;;-0.10;99.90;;;;;;4932636;29;20050;-74
2023/01/21 03:44:37;;;;;;;10.90;6.20;;;0.10;99.90;;;;;;4937431;29;20074;-74
2023/01/21 03:47:12;;;;;;;10.02;5.75;;;0.20;99.90;;;;;;4951008;29;20577;-74
2023/01/21 03:49:44;;;;;;;8.63;4.78;;;0.00;99.90;;;;;;4951339;28;20051;-74
2023/01/21 03:52:12;;;;;;;7.75;4.32;;;0.00;99.90;;;;;;4937203;29;20114;-74
2023/01/21 03:54:39;;;;;;;10.30;4.97;;;0.30;99.90;;;;;;4940632;29;20059;-75
2023/01/21 03:57:05;;;;;;;6.93;4.05;;;0.20;99.90;;;;;;4932534;29;20036;-74
2023/01/21 03:59:30;;;;;;;6.95;4.30;;;0.30;99.90;;;;;;4943524;29;20098;-74
2023/01/21 04:01:56;;;;;;;10.38;5.38;;;0.40;99.90;;;;;;4948830;29;20391;-74
2023/01/21 04:04:22;;;;;;;8.70;4.63;;;0.40;99.90;;;;;;4933040;29;20048;-74
2023/01/21 04:06:47;;;;;;;9.18;5.35;;;0.80;99.90;;;;;;4936295;29;20055;-74
2023/01/21 04:09:13;;;;;;;8.07;4.60;;;0.80;99.90;;;;;;4932746;29;20420;-75
2023/01/21 04:11:39;;;;;;;10.73;5.53;;;0.80;99.90;;;;;;4945637;29;20498;-74
2023/01/21 04:14:05;;;;;;;8.80;5.32;;;0.90;99.90;;;;;;4951440;29;20478;-74
2023/01/21 04:16:30;;;;;;;9.95;5.30;;;1.00;99.90;;;;;;4934840;29;20043;-74
2023/01/21 04:18:56;;;;;;;8.57;5.25;;;0.80;99.90;;;;;;4948326;29;20047;-74
2023/01/21 04:21:22;;;;;;;10.00;6.15;;;0.80;99.90;;;;;;4950242;29;20058;-74
2023/01/21 04:23:47;;;;;;;9.50;5.75;;;1.10;99.90;;;;;;4947157;28;20048;-74
2023/01/21 04:26:15;;;;;;;10.85;6.22;;;1.20;99.90;;;;;;4969223;28;20133;-74
2023/01/21 04:28:41;;;;;;;9.38;5.65;;;1.10;99.90;;;;;;4957178;28;20063;-74
2023/01/21 04:31:07;;;;;;;10.50;5.72;;;1.10;99.90;;;;;;4939762;29;20055;-75
2023/01/21 04:33:32;;;;;;;10.88;5.97;;;1.20;99.90;;;;;;4930129;29;20051;-74
2023/01/21 04:35:59;;;;;;;16.27;8.88;;;1.20;99.90;;;;;;4950975;29;20047;-74
2023/01/21 04:38:26;;;;;;;14.48;8.15;;;1.40;99.90;;;;;;4950480;29;20040;-73
2023/01/21 04:40:52;;;;;;;13.63;8.30;;;1.30;99.90;;;;;;4940310;29;20163;-74
2023/01/21 04:43:18;;;;;;;14.50;8.32;;;1.50;99.90;;;;;;4940596;29;20037;-74
2023/01/21 04:45:44;;;;;;;15.27;9.07;;;1.20;99.90;;;;;;4950842;29;20218;-74
2023/01/21 04:48:10;;;;;;;12.80;7.40;;;1.20;99.90;;;;;;4947542;29;20856;-74
2023/01/21 04:50:37;;;;;;;16.92;9.02;;;1.50;99.90;;;;;;4924949;29;20058;-74
2023/01/21 04:53:02;;;;;;;17.63;10.57;;;1.40;99.90;;;;;;4925112;29;20043;-74
2023/01/21 04:55:28;;;;;;;19.50;11.65;;;1.40;99.90;;;;;;4951332;29;20074;-74
2023/01/21 04:57:54;;;;;;;17.50;10.57;;;1.40;99.90;;;;;;4941326;29;20047;-75
2023/01/21 05:00:20;;;;;;;16.70;9.40;;;1.30;99.90;;;;;;4921434;29;20118;-74
2023/01/21 05:02:45;;;;;;;14.63;8.70;;;1.30;99.90;;;;;;4948737;29;20283;-74
2023/01/21 05:05:11;;;;;;;15.57;8.93;;;1.30;99.90;;;;;;4916584;29;20052;-75
2023/01/21 05:07:37;;;;;;;11.68;6.88;;;1.50;99.90;;;;;;4932780;29;20484;-74
2023/01/21 05:10:02;;;;;;;12.10;6.63;;;1.30;99.90;;;;;;4932144;29;20134;-74
2023/01/21 05:12:28;;;;;;;10.65;5.60;;;1.30;99.90;;;;;;4909843;29;20651;-74
2023/01/21 05:14:56;;;;;;;8.00;4.50;;;1.60;99.90;;;;;;4951906;29;20051;-74
2023/01/21 05:17:22;;;;;;;10.45;6.07;;;1.40;99.90;;;;;;4938452;29;20047;-74
2023/01/21 05:19:49;;;;;;;11.10;6.75;;;1.30;99.90;;;;;;4939111;29;20113;-74
2023/01/21 05:22:16;;;;;;;10.18;6.13;;;1.50;99.90;;;;;;4953859;29;20055;-74
2023/01/21 05:24:41;;;;;;;11.23;6.20;;;1.50;99.90;;;;;;4950702;28;20065;-74
2023/01/21 05:27:07;;;;;;;10.07;6.05;;;1.40;99.90;;;;;;4954267;29;20126;-74
2023/01/21 05:29:33;;;;;;;8.02;4.70;;;1.40;99.90;;;;;;4924643;29;20059;-74
2023/01/21 05:31:59;;;;;;;10.03;5.47;;;1.40;99.90;;;;;;4947312;29;20054;-74
2023/01/21 05:34:24;;;;;;;9.63;5.32;;;1.60;99.90;;;;;;4945669;29;20298;-75
2023/01/21 05:36:50;;;;;;;8.27;4.82;;;1.20;99.90;;;;;;4938122;29;20101;-74
2023/01/21 05:39:16;;;;;;;9.00;5.45;;;1.20;99.90;;;;;;4944848;29;20052;-74
2023/01/21 05:41:41;;;;;;;10.00;5.45;;;1.30;99.90;;;;;;4932362;29;20043;-74
2023/01/21 05:44:08;;;;;;;10.52;5.65;;;1.20;99.90;;;;;;4930875;29;20475;-74
2023/01/21 05:46:34;;;;;;;9.23;5.32;;;0.90;99.90;;;;;;4944850;29;20445;-74
2023/01/21 05:49:00;;;;;;;12.43;6.97;;;0.90;99.90;;;;;;4948063;29;20051;-74
2023/01/21 05:51:26;;;;;;;10.77;6.18;;;1.10;99.90;;;;;;4945749;29;20051;-74
2023/01/21 05:53:51;;;;;;;12.40;7.00;;;1.10;99.90;;;;;;4942220;29;20062;-74
2023/01/21 05:56:17;;;;;;;12.30;6.82;;;1.10;99.90;;;;;;4953949;29;20059;-73
2023/01/21 05:58:43;;;;;;;9.45;5.85;;;1.10;99.90;;;;;;4952305;29;20134;-74
2023/01/21 06:01:08;;;;;;;11.20;6.45;;;0.80;99.90;;;;;;4953222;29;20071;-75
2023/01/21 06:03:34;;;;;;;17.40;9.38;;;1.00;99.90;;;;;;4953601;29;20434;-75
2023/01/21 06:06:00;;;;;;;16.50;9.52;;;0.80;99.90;;;;;;4953935;29;20058;-75
2023/01/21 06:08:26;;;;;;;9.85;6.15;;;0.70;99.90;;;;;;4937734;29;20043;-75
2023/01/21 06:10:55;;;;;;;13.02;7.55;;;0.90;99.90;;;;;;4939032;29;20047;-75
2023/01/21 06:13:22;;;;;;;11.23;6.82;;;0.90;99.90;;;;;;4929231;29;20039;-74
2023/01/21 06:15:47;;;;;;;11.73;6.47;;;0.70;99.90;;;;;;4951054;29;20058;-74
2023/01/21 06:18:13;;;;;;;9.98;5.55;;;0.70;99.90;;;;;;4937009;28;20426;-74
2023/01/21 06:20:39;;;;;;;8.32;5.20;;;0.70;99.90;;;;;;4948936;29;20039;-74
2023/01/21 06:23:05;;;;;;;10.32;6.00;;;0.40;99.90;;;;;;4952119;28;20043;-74
2023/01/21 06:25:31;;;;;;;13.18;7.40;;;0.40;99.90;;;;;;4964390;28;20500;-74
2023/01/21 06:27:57;;;;;;;;;;;0.30;99.90;;;;;;4973151;28;20138;-75
2023/01/21 06:30:26;;;;;;;12.60;7.28;;;0.30;99.90;;;;;;4950520;28;20364;-75
2023/01/21 06:32:52;;;;;;;11.00;6.25;;;0.40;99.90;;;;;;4937197;29;20047;-75
2023/01/21 06:35:18;;;;;;;9.13;5.55;;;0.30;99.90;;;;;;4942133;29;20493;-74
2023/01/21 06:37:44;;;;;;;11.52;6.22;;;0.20;99.90;;;;;;4949713;29;20126;-74
2023/01/21 06:40:11;;;;;;;12.02;6.78;;;0.20;99.90;;;;;;4943337;29;20516;-74
2023/01/21 06:42:37;;;;;;;11.63;6.05;;;0.20;99.90;;;;;;4918078;29;20051;-75
2023/01/21 06:45:03;;;;;;;9.18;5.40;;;0.40;99.90;;;;;;4940549;29;20078;-75
2023/01/21 06:47:29;;;;;;;10.10;5.85;;;0.40;99.90;;;;;;4932514;29;20123;-75
2023/01/21 06:49:54;;;;;;;9.93;5.45;;;0.50;99.90;;;;;;4929411;29;20130;-75
2023/01/21 06:52:21;;;;;;;8.55;5.25;;;0.60;99.90;;;;;;4931638;29;20475;-72
2023/01/21 06:54:47;;;;;;;10.38;6.45;;;0.60;99.90;;;;;;4958206;28;20479;-73
2023/01/21 06:57:13;;;;;;;10.93;5.70;;;0.50;99.90;;;;;;4933784;29;20062;-75
2023/01/21 06:59:39;;;;;;;9.77;4.97;;;0.60;99.90;;;;;;4942342;29;20507;-74
2023/01/21 07:02:06;;;;;;;11.40;6.25;;;0.80;99.90;;;;;;4922881;29;20043;-75
2023/01/21 07:04:31;;;;;;;10.38;5.28;;;0.70;99.90;;;;;;4925852;29;20507;-75
2023/01/21 07:06:57;;;;;;;10.45;5.15;;;0.60;99.90;;;;;;4941389;28;20090;-75
2023/01/21 07:09:23;;;;;;;10.38;5.57;;;0.80;99.90;;;;;;4941536;29;20549;-75
2023/01/21 07:11:48;;;;;;;11.52;6.10;;;0.90;99.90;;;;;;4910732;29;20049;-75
2023/01/21 07:14:14;;;;;;;10.70;5.63;;;0.80;99.90;;;;;;4940926;29;20150;-75
2023/01/21 07:16:40;;;;;;;8.52;5.07;;;0.80;99.90;;;;;;4925073;29;20051;-75
2023/01/21 07:19:06;;;;;;;12.25;6.93;;;0.60;99.90;;;;;;4925001;29;20168;-74
2023/01/21 07:21:32;;;;;;;19.83;10.77;;;0.60;99.90;;;;;;4940500;29;20106;-74
2023/01/21 07:23:59;;;;;;;25.63;12.00;;;0.80;99.90;;;;;;4944780;28;20464;-74
2023/01/21 07:26:25;;;;;;;18.65;10.15;;;0.60;99.90;;;;;;4925475;29;20507;-74
2023/01/21 07:28:50;;;;;;;19.65;9.50;;;0.70;99.90;;;;;;4940021;29;20083;-74
2023/01/21 07:31:16;;;;;;;14.97;7.70;;;0.60;99.90;;;;;;4943425;28;20919;-74
2023/01/21 07:33:42;;;;;;;13.43;7.40;;;0.80;99.90;;;;;;4926660;29;20295;-74
2023/01/21 07:36:08;;;;;;;12.32;6.50;;;0.50;99.90;;;;;;4944163;29;20134;-74
2023/01/21 07:38:33;;;;;;;11.75;6.10;;;0.50;99.90;;;;;;4941735;29;20044;-74
2023/01/21 07:40:59;;;;;;;13.50;6.95;;;0.60;99.90;;;;;;4926731;29;20081;-74
2023/01/21 07:43:26;;;;;;;13.88;6.90;;;0.40;99.90;;;;;;4914827;29;20058;-74
2023/01/21 07:45:53;;;;;;;14.18;7.82;;;0.50;99.90;;;;;;4938514;29;20055;-74
2023/01/21 07:48:20;;;;;;;13.98;7.47;;;0.30;99.90;;;;;;4925325;29;20545;-75
2023/01/21 07:50:45;;;;;;;14.35;7.68;;;0.30;99.90;;;;;;4951737;29;20043;-74
2023/01/21 07:53:11;;;;;;;11.93;6.13;;;0.50;99.90;;;;;;4917979;29;20062;-74
2023/01/21 07:55:37;;;;;;;13.50;6.63;;;0.50;99.90;;;;;;4929965;29;20058;-74
2023/01/21 07:58:03;;;;;;;11.07;5.80;;;0.40;99.90;;;;;;4927981;29;20035;-75
2023/01/21 08:00:29;;;;;;;10.18;4.95;;;0.30;99.90;;;;;;4948015;29;20047;-75
2023/01/21 08:02:55;;;;;;;12.43;5.68;;;0.20;99.90;;;;;;4923901;29;20052;-75
2023/01/21 08:05:25;;;;;;;10.98;5.50;;;0.20;99.90;;;;;;4946730;29;20046;-75
2023/01/21 08:07:51;;;;;;;12.43;6.50;;;0.20;99.90;;;;;;4949212;29;20039;-74
2023/01/21 08:10:18;;;;;;;9.68;5.30;;;0.40;99.90;;;;;;4928862;29;20039;-74
2023/01/21 08:12:44;;;;;;;8.77;4.95;;;0.40;99.90;;;;;;4946406;29;20109;-75
2023/01/21 08:15:11;;;;;;;9.05;5.03;;;0.20;99.90;;;;;;4949526;29;20504;-75
2023/01/21 08:17:37;;;;;;;;;;;0.50;99.90;;;;;;4910108;29;20147;-75
2023/01/21 08:20:04;;;;;;;11.45;6.07;;;0.20;99.90;;;;;;4942329;29;20053;-74
2023/01/21 08:22:30;;;;;;;;;;;0.50;99.90;;;;;;4927877;29;20071;-74
2023/01/21 08:24:55;;;;;;;9.90;5.60;;;0.30;99.90;;;;;;4933135;29;19966;-74
2023/01/21 08:27:21;;;;;;;12.05;5.78;;;0.40;99.90;;;;;;4917667;29;20483;-75
2023/01/21 08:29:47;;;;;;;10.55;5.40;;;0.50;99.90;;;;;;4923928;29;20067;-75
2023/01/21 08:32:13;;;;;;;13.15;7.00;;;0.60;99.90;;;;;;4924618;29;20043;-73
2023/01/21 08:34:39;;;;;;;15.82;7.63;;;0.40;99.90;;;;;;4905110;29;20044;-73
2023/01/21 08:37:05;;;;;;;14.55;7.30;;;0.60;99.90;;;;;;4926626;28;20049;-73
2023/01/21 08:39:30;;;;;;;12.18;6.65;;;0.60;99.90;;;;;;4942793;29;20477;-74
2023/01/21 08:41:56;;;;;;;11.68;6.60;;;0.40;99.90;;;;;;4895616;29;20046;-74
2023/01/21 08:44:22;;;;;;;11.50;6.38;;;0.40;99.90;;;;;;4925238;29;20044;-74
2023/01/21 08:46:48;;;;;;;10.00;5.57;;;0.40;99.90;;;;;;4926310;29;20069;-74
2023/01/21 08:49:13;;;;;;;11.05;5.95;;;0.60;99.90;;;;;;4928666;29;20506;-74
2023/01/21 08:51:40;;;;;;;9.90;5.60;;;0.70;99.90;;;;;;4930580;29;20106;-74
2023/01/21 08:54:06;;;;;;;;;;;0.90;99.90;;;;;;4928798;29;20070;-74
2023/01/21 08:56:32;;;;;;;10.48;5.55;;;0.60;99.90;;;;;;4929052;29;19926;-74
2023/01/21 08:58:57;;;;;;;7.50;4.10;;;0.60;99.90;;;;;;4926013;29;20043;-74
2023/01/21 09:01:24;;;;;;;8.18;4.70;;;0.80;99.90;;;;;;4914560;29;20442;-74
2023/01/21 09:03:57;;;;;;;9.38;5.55;;;0.80;99.90;;;;;;4924216;29;20072;-74
2023/01/21 09:06:24;;;;;;;8.85;5.15;;;1.10;99.90;;;;;;4928952;29;20071;-74
2023/01/21 09:08:50;;;;;;;11.10;5.78;;;1.10;99.90;;;;;;4928575;29;20043;-75
2023/01/21 09:11:16;;;;;;;9.80;5.25;;;1.20;99.90;;;;;;4928102;29;20090;-74
2023/01/21 09:13:45;;;;;;;9.23;5.30;;;1.00;99.90;;;;;;4929515;29;20043;-74
2023/01/21 09:16:17;;;;;;;9.48;4.88;;;1.30;99.90;;;;;;4929216;29;20110;-74
2023/01/21 09:18:42;;;;;;;10.27;4.90;;;1.30;99.90;;;;;;4928128;28;20035;-74
2023/01/21 09:21:10;;;;;;;7.88;4.65;;;1.20;99.90;;;;;;4930147;29;20053;-74
2023/01/21 09:23:37;;;;;;;9.57;4.90;;;1.40;99.90;;;;;;4925932;29;20121;-74
2023/01/21 09:26:15;;;;;;;7.53;4.35;;;1.40;99.90;;;;;;4929533;29;20040;-74
2023/01/21 09:28:43;;;;;;;7.07;4.25;;;1.30;99.90;;;;;;4914739;29;20047;-74
2023/01/21 09:31:12;;;;;;;7.40;4.65;;;1.40;99.90;;;;;;4925778;29;20035;-74
2023/01/21 09:33:40;;;;;;;6.45;3.85;;;1.20;99.90;;;;;;4925914;29;20059;-74
2023/01/21 09:36:10;;;;;;;7.50;4.55;;;1.30;99.90;;;;;;4926348;29;20154;-74
2023/01/21 09:38:35;;;;;;;7.93;4.40;;;1.50;99.90;;;;;;4911582;29;20051;-74
2023/01/21 09:41:25;;;;;;;6.50;3.88;;;1.50;99.90;;;;;;4928346;29;20495;-74
2023/01/21 09:44:12;;;;;;;6.57;4.10;;;1.60;99.90;;;;;;4911856;29;20051;-74
2023/01/21 09:46:49;;;;;;;6.15;3.72;;;1.60;99.90;;;;;;4929791;29;20066;-74
2023/01/21 09:49:24;;;;;;;6.22;3.63;;;1.80;99.90;;;;;;4941418;29;20085;-74
2023/01/21 09:52:19;;;;;;;6.03;3.58;;;2.00;99.90;;;;;;4965871;28;20046;-74
2023/01/21 09:54:44;;;;;;;6.97;4.00;;;1.90;99.90;;;;;;4942408;28;20055;-74
2023/01/21 09:57:19;;;;;;;6.28;3.60;;;2.20;99.90;;;;;;4929879;29;20043;-73
2023/01/21 10:00:04;;;;;;;6.15;3.72;;;2.00;99.90;;;;;;4943564;29;20479;-74
2023/01/21 10:02:40;;;;;;;11.27;6.38;;;2.40;99.90;;;;;;4941760;29;20043;-74
2023/01/21 10:05:32;;;;;;;22.05;13.10;;;2.70;99.90;;;;;;4943640;28;20486;-74
2023/01/21 10:08:32;;;;;;;29.63;15.98;;;3.00;99.90;;;;;;4943939;28;20045;-74
2023/01/21 10:11:10;;;;;;;28.60;16.60;;;3.30;99.90;;;;;;4941640;29;20044;-74
2023/01/21 10:14:11;;;;;;;26.25;15.13;;;3.10;99.90;;;;;;4964967;28;20066;-74
2023/01/21 10:16:55;;;;;;;22.67;12.85;;;3.40;99.90;;;;;;4940777;29;20093;-74
2023/01/21 10:19:27;;;;;;;18.73;10.68;;;3.40;99.90;;;;;;4941895;29;20156;-75
2023/01/21 10:21:59;;;;;;;15.07;9.38;;;3.50;99.90;;;;;;4940795;29;20054;-74
2023/01/21 10:24:48;;;;;;;13.35;7.85;;;3.90;99.90;;;;;;4945973;28;20039;-76
2023/01/21 10:27:18;;;;;;;18.20;9.82;;;3.80;99.90;;;;;;4941560;29;20427;-75
2023/01/21 10:29:45;;;;;;;18.50;11.10;;;3.80;99.90;;;;;;4922566;29;20142;-75
2023/01/21 10:32:21;;;;;;;18.42;10.85;;;4.00;99.90;;;;;;4938995;29;20107;-75
2023/01/21 10:34:50;;;;;;;13.02;8.52;;;4.20;99.90;;;;;;4943244;29;20115;-75
2023/01/21 10:37:19;;;;;;;13.10;8.23;;;4.60;99.90;;;;;;4926216;29;20080;-75
2023/01/21 10:39:59;;;;;;;16.42;11.13;;;4.70;99.90;;;;;;4938242;29;20146;-75
2023/01/21 10:42:40;;;;;;;18.85;11.02;;;4.90;99.90;;;;;;4940836;29;20040;-75
2023/01/21 10:45:17;;;;;;;16.80;10.82;;;4.90;99.90;;;;;;4925616;29;20113;-75
2023/01/21 10:48:02;;;;;;;17.15;11.05;;;5.00;99.90;;;;;;4939535;29;20059;-75
2023/01/21 10:50:37;;;;;;;18.98;12.20;;;5.40;99.90;;;;;;4941007;29;20038;-75
2023/01/21 10:53:18;;;;;;;18.65;12.25;;;5.60;99.90;;;;;;4938991;29;20044;-75
2023/01/21 10:56:08;;;;;;;15.75;10.95;;;5.70;99.90;;;;;;4941020;29;20043;-74
2023/01/21 10:58:46;;;;;;;19.58;12.25;;;5.80;99.90;;;;;;4926283;29;20047;-74
2023/01/21 11:01:26;;;;;;;16.40;11.13;;;6.20;99.90;;;;;;4942667;29;20094;-73
2023/01/21 11:04:14;;;;;;;19.85;12.32;;;6.60;99.90;;;;;;4925211;29;20458;-73
2023/01/21 11:06:41;;;;;;;19.08;12.30;;;6.90;99.90;;;;;;4939407;29;20079;-73
2023/01/21 11:09:11;;;;;;;17.15;11.93;;;7.10;99.90;;;;;;4940265;29;20051;-73
2023/01/21 11:11:39;;;;;;;14.20;10.05;;;7.00;99.90;;;;;;4940158;29;20047;-73
2023/01/21 11:14:04;;;;;;;12.90;9.45;;;7.20;99.90;;;;;;4925903;29;20047;-73
2023/01/21 11:16:37;;;;;;;14.35;10.43;;;7.30;99.90;;;;;;4940485;29;20040;-73
2023/01/21 11:19:05;;;;;;;18.77;11.57;;;7.60;99.90;;;;;;4940475;29;20554;-73
2023/01/21 11:21:31;;;;;;;14.27;10.70;;;7.80;99.90;;;;;;4925593;29;20051;-73
2023/01/21 11:24:03;;;;;;;16.88;11.45;;;7.80;99.90;;;;;;4940244;28;20055;-73
2023/01/21 11:26:34;;;;;;;15.25;11.68;;;7.90;99.90;;;;;;4941692;29;20073;-73
2023/01/21 11:29:14;;;;;;;15.02;11.27;;;8.30;99.90;;;;;;4941625;29;20057;-73
2023/01/21 11:31:47;;;;;;;15.43;11.48;;;8.40;99.90;;;;;;4943089;29;20054;-73
2023/01/21 11:34:15;;;;;;;13.70;10.45;;;8.40;99.90;;;;;;4938562;29;20053;-74
2023/01/21 11:37:05;;;;;;;12.98;9.60;;;8.60;99.90;;;;;;4941564;29;20510;-73
2023/01/21 11:39:38;;;;;;;12.57;9.18;;;8.40;99.90;;;;;;4939726;29;20586;-73
2023/01/21 11:42:14;;;;;;;12.25;9.00;;;8.40;99.90;;;;;;4924994;29;20133;-73
2023/01/21 11:44:56;;;;;;;12.80;8.88;;;8.40;99.90;;;;;;4938185;29;20075;-73
2023/01/21 11:47:28;;;;;;;11.93;9.07;;;8.40;99.90;;;;;;4940329;29;20050;-73
2023/01/21 11:50:00;;;;;;;9.65;7.63;;;8.20;99.90;;;;;;4925390;29;20040;-74
2023/01/21 11:52:26;;;;;;;14.93;10.65;;;8.10;99.90;;;;;;4940064;29;20035;-74
2023/01/21 11:54:51;;;;;;;13.73;10.07;;;7.70;99.90;;;;;;4941798;29;20322;-74
2023/01/21 11:57:27;;;;;;;12.73;9.18;;;7.40;99.90;;;;;;4939716;29;20039;-74
2023/01/21 11:59:57;;;;;;;11.13;8.80;;;7.20;99.90;;;;;;4941576;29;20067;-74
2023/01/21 12:02:30;;;;;;;12.00;8.60;;;6.90;99.90;;;;;;4938833;29;20131;-73
2023/01/21 12:05:00;;;;;;;8.98;7.00;;;6.60;99.90;;;;;;4937599;29;20036;-74
2023/01/21 12:07:33;;;;;;;7.93;6.53;;;6.50;99.90;;;;;;4924781;29;20222;-74
2023/01/21 12:10:11;;;;;;;8.57;6.40;;;6.40;99.90;;;;;;4939277;29;20046;-74
2023/01/21 12:13:10;;;;;;;10.68;7.70;;;6.50;99.90;;;;;;4941291;29;20042;-73
2023/01/21 12:15:44;;;;;;;10.90;8.10;;;6.50;99.90;;;;;;4941275;29;20048;-73
2023/01/21 12:18:33;;;;;;;10.88;7.70;;;6.50;99.90;;;;;;4940251;29;20051;-74
2023/01/21 12:21:09;;;;;;;8.63;6.63;;;6.30;99.90;;;;;;4940037;29;20039;-74
2023/01/21 12:23:53;;;;;;;9.40;6.78;;;6.20;98.30;;;;;;4940960;28;20035;-74
2023/01/21 12:26:49;;;;;;;7.85;6.53;;;6.30;98.10;;;;;;4938781;29;20051;-74
2023/01/21 12:29:45;;;;;;;7.30;5.50;;;6.30;96.50;;;;;;4939970;29;20051;-74
2023/01/21 12:32:20;;;;;;;7.20;5.28;;;6.30;95.00;;;;;;4926021;29;20130;-74
2023/01/21 12:34:56;;;;;;;5.65;4.60;;;6.40;92.30;;;;;;4938734;29;20043;-74
2023/01/21 12:37:47;;;;;;;6.05;4.20;;;6.40;94.40;;;;;;4939009;29;20513;-74
2023/01/21 12:40:34;;;;;;;5.88;4.43;;;6.20;83.30;;;;;;4940888;29;20046;-74
2023/01/21 12:43:05;;;;;;;;;;;6.30;76.30;;;;;;4940423;29;20397;-74
2023/01/21 12:45:44;;;;;;;5.13;3.85;;;6.40;87.90;;;;;;4940286;29;19926;-74
2023/01/21 12:48:17;;;;;;;5.03;3.65;;;6.30;76.40;;;;;;4942142;29;20046;-74
2023/01/21 12:50:50;;;;;;;5.10;3.53;;;6.40;75.20;;;;;;4940565;29;20627;-74
2023/01/21 12:53:31;;;;;;;6.38;3.88;;;6.50;76.60;;;;;;4939926;29;20679;-74
2023/01/21 12:56:03;;;;;;;3.75;2.90;;;6.50;90.90;;;;;;4924140;29;20695;-74
2023/01/21 12:58:32;;;;;;;3.72;2.72;;;6.10;65.70;;;;;;4939722;29;20099;-74
2023/01/21 13:01:03;;;;;;;3.88;2.92;;;6.00;72.50;;;;;;4941903;29;20047;-74
2023/01/21 13:03:40;;;;;;;3.97;2.90;;;5.90;80.10;;;;;;4941026;29;20051;-74
2023/01/21 13:06:31;;;;;;;3.63;2.85;;;5.90;72.40;;;;;;4939184;29;20082;-74
2023/01/21 13:09:10;;;;;;;5.05;3.10;;;5.90;77.30;;;;;;4939824;29;20724;-74
2023/01/21 13:11:41;;;;;;;5.00;3.72;;;5.90;90.00;;;;;;4942060;29;20078;-73